sensor_id;sensor_type;location;lat;lon;timestamp;P1;durP1;ratioP1;P2;durP2;ratioP2
71265;SDS011;59030;52.052;8.550;2022-10-16T00:01:52;2.23;;;2.03;;
71265;SDS011;59030;52.052;8.550;2022-10-16T00:04:20;2.30;;;2.10;;
71265;SDS011;59030;52.052;8.550;2022-10-16T00:06:47;3.13;;;2.00;;
71265;SDS011;59030;52.052;8.550;2022-10-16T00:09:14;2.10;;;1.90;;
71265;SDS011;59030;52.052;8.550;2022-10-16T00:11:42;2.40;;;2.00;;
71265;SDS011;59030;52.052;8.550;2022-10-16T00:14:10;2.33;;;2.13;;
71265;SDS011;59030;52.052;8.550;2022-10-16T00:16:38;3.20;;;2.40;;
71265;SDS011;59030;52.052;8.550;2022-10-16T00:19:06;2.73;;;2.27;;
71265;SDS011;59030;52.052;8.550;2022-10-16T00:21:34;2.33;;;2.10;;
71265;SDS011;59030;52.052;8.550;2022-10-16T00:24:02;2.30;;;2.10;;
71265;SDS011;59030;52.052;8.550;2022-10-16T00:26:30;2.30;;;2.03;;
71265;SDS011;59030;52.052;8.550;2022-10-16T00:28:58;1.93;;;1.73;;
71265;SDS011;59030;52.052;8.550;2022-10-16T00:31:26;2.50;;;2.20;;
71265;SDS011;59030;52.052;8.550;2022-10-16T00:33:53;2.83;;;2.10;;
71265;SDS011;59030;52.052;8.550;2022-10-16T00:36:21;2.47;;;2.23;;
71265;SDS011;59030;52.052;8.550;2022-10-16T00:38:50;2.77;;;2.13;;
71265;SDS011;59030;52.052;8.550;2022-10-16T00:41:19;2.40;;;2.20;;
71265;SDS011;59030;52.052;8.550;2022-10-16T00:43:46;2.60;;;2.07;;
71265;SDS011;59030;52.052;8.550;2022-10-16T00:46:16;2.67;;;2.00;;
71265;SDS011;59030;52.052;8.550;2022-10-16T00:48:52;1.97;;;1.77;;
71265;SDS011;59030;52.052;8.550;2022-10-16T00:51:15;2.10;;;1.90;;
71265;SDS011;59030;52.052;8.550;2022-10-16T00:53:44;3.00;;;2.07;;
71265;SDS011;59030;52.052;8.550;2022-10-16T00:56:11;2.00;;;1.80;;
71265;SDS011;59030;52.052;8.550;2022-10-16T00:58:39;1.90;;;1.80;;
71265;SDS011;59030;52.052;8.550;2022-10-16T01:01:07;2.30;;;1.90;;
71265;SDS011;59030;52.052;8.550;2022-10-16T01:03:36;1.93;;;1.73;;
71265;SDS011;59030;52.052;8.550;2022-10-16T01:06:06;3.23;;;2.10;;
71265;SDS011;59030;52.052;8.550;2022-10-16T01:08:36;2.10;;;1.90;;
71265;SDS011;59030;52.052;8.550;2022-10-16T01:11:05;2.53;;;2.17;;
71265;SDS011;59030;52.052;8.550;2022-10-16T01:13:33;2.10;;;1.90;;
71265;SDS011;59030;52.052;8.550;2022-10-16T01:16:04;3.47;;;2.10;;
71265;SDS011;59030;52.052;8.550;2022-10-16T01:18:33;2.80;;;2.10;;
71265;SDS011;59030;52.052;8.550;2022-10-16T01:21:04;2.60;;;2.33;;
71265;SDS011;59030;52.052;8.550;2022-10-16T01:23:36;2.00;;;1.80;;
71265;SDS011;59030;52.052;8.550;2022-10-16T01:26:10;2.87;;;2.27;;
71265;SDS011;59030;52.052;8.550;2022-10-16T01:28:38;2.23;;;2.03;;
71265;SDS011;59030;52.052;8.550;2022-10-16T01:31:06;2.23;;;2.00;;
71265;SDS011;59030;52.052;8.550;2022-10-16T01:33:35;1.90;;;1.73;;
71265;SDS011;59030;52.052;8.550;2022-10-16T01:36:05;2.10;;;1.90;;
71265;SDS011;59030;52.052;8.550;2022-10-16T01:38:34;2.50;;;2.10;;
71265;SDS011;59030;52.052;8.550;2022-10-16T01:41:03;2.60;;;2.27;;
71265;SDS011;59030;52.052;8.550;2022-10-16T01:43:33;2.20;;;2.00;;
71265;SDS011;59030;52.052;8.550;2022-10-16T01:46:00;2.77;;;2.30;;
71265;SDS011;59030;52.052;8.550;2022-10-16T01:48:29;3.03;;;2.13;;
71265;SDS011;59030;52.052;8.550;2022-10-16T01:50:59;2.57;;;2.10;;
71265;SDS011;59030;52.052;8.550;2022-10-16T01:53:26;2.50;;;2.17;;
71265;SDS011;59030;52.052;8.550;2022-10-16T01:55:54;2.43;;;2.23;;
71265;SDS011;59030;52.052;8.550;2022-10-16T01:58:22;1.70;;;1.60;;
71265;SDS011;59030;52.052;8.550;2022-10-16T02:00:50;2.30;;;2.07;;
71265;SDS011;59030;52.052;8.550;2022-10-16T02:03:18;1.90;;;1.73;;
71265;SDS011;59030;52.052;8.550;2022-10-16T02:05:47;3.90;;;1.97;;
71265;SDS011;59030;52.052;8.550;2022-10-16T02:08:15;2.40;;;2.10;;
71265;SDS011;59030;52.052;8.550;2022-10-16T02:10:42;2.50;;;2.07;;
71265;SDS011;59030;52.052;8.550;2022-10-16T02:13:11;2.23;;;2.03;;
71265;SDS011;59030;52.052;8.550;2022-10-16T02:15:38;2.50;;;2.30;;
71265;SDS011;59030;52.052;8.550;2022-10-16T02:18:07;2.13;;;1.93;;
71265;SDS011;59030;52.052;8.550;2022-10-16T02:20:36;3.40;;;2.27;;
71265;SDS011;59030;52.052;8.550;2022-10-16T02:23:04;4.67;;;2.27;;
71265;SDS011;59030;52.052;8.550;2022-10-16T02:25:35;2.97;;;2.10;;
71265;SDS011;59030;52.052;8.550;2022-10-16T02:28:04;2.53;;;2.17;;
71265;SDS011;59030;52.052;8.550;2022-10-16T02:30:33;2.80;;;2.20;;
71265;SDS011;59030;52.052;8.550;2022-10-16T02:33:02;3.17;;;2.30;;
71265;SDS011;59030;52.052;8.550;2022-10-16T02:35:30;2.40;;;2.20;;
71265;SDS011;59030;52.052;8.550;2022-10-16T02:37:58;2.20;;;1.90;;
71265;SDS011;59030;52.052;8.550;2022-10-16T02:40:26;2.03;;;1.80;;
71265;SDS011;59030;52.052;8.550;2022-10-16T02:42:54;2.30;;;2.10;;
71265;SDS011;59030;52.052;8.550;2022-10-16T02:45:22;2.30;;;1.97;;
71265;SDS011;59030;52.052;8.550;2022-10-16T02:47:50;2.27;;;1.90;;
71265;SDS011;59030;52.052;8.550;2022-10-16T02:50:18;2.03;;;1.83;;
71265;SDS011;59030;52.052;8.550;2022-10-16T02:52:45;2.90;;;2.10;;
71265;SDS011;59030;52.052;8.550;2022-10-16T02:55:12;2.07;;;1.87;;
71265;SDS011;59030;52.052;8.550;2022-10-16T02:57:39;2.30;;;2.10;;
71265;SDS011;59030;52.052;8.550;2022-10-16T03:00:09;1.93;;;1.70;;
71265;SDS011;59030;52.052;8.550;2022-10-16T03:02:37;2.10;;;1.97;;
71265;SDS011;59030;52.052;8.550;2022-10-16T03:05:05;1.87;;;1.77;;
71265;SDS011;59030;52.052;8.550;2022-10-16T03:07:32;1.87;;;1.70;;
71265;SDS011;59030;52.052;8.550;2022-10-16T03:09:59;2.00;;;1.80;;
71265;SDS011;59030;52.052;8.550;2022-10-16T03:12:27;2.70;;;1.70;;
71265;SDS011;59030;52.052;8.550;2022-10-16T03:14:54;1.63;;;1.50;;
71265;SDS011;59030;52.052;8.550;2022-10-16T03:17:22;1.60;;;1.50;;
71265;SDS011;59030;52.052;8.550;2022-10-16T03:19:50;2.27;;;1.83;;
71265;SDS011;59030;52.052;8.550;2022-10-16T03:22:17;1.90;;;1.70;;
71265;SDS011;59030;52.052;8.550;2022-10-16T03:24:44;2.37;;;1.83;;
71265;SDS011;59030;52.052;8.550;2022-10-16T03:27:11;2.80;;;1.67;;
71265;SDS011;59030;52.052;8.550;2022-10-16T03:29:39;2.13;;;1.80;;
71265;SDS011;59030;52.052;8.550;2022-10-16T03:32:07;1.97;;;1.80;;
71265;SDS011;59030;52.052;8.550;2022-10-16T03:34:35;1.73;;;1.50;;
71265;SDS011;59030;52.052;8.550;2022-10-16T03:37:02;1.77;;;1.67;;
71265;SDS011;59030;52.052;8.550;2022-10-16T03:39:29;2.07;;;1.87;;
71265;SDS011;59030;52.052;8.550;2022-10-16T03:41:57;1.70;;;1.60;;
71265;SDS011;59030;52.052;8.550;2022-10-16T03:44:24;1.83;;;1.73;;
71265;SDS011;59030;52.052;8.550;2022-10-16T03:46:52;1.97;;;1.77;;
71265;SDS011;59030;52.052;8.550;2022-10-16T03:49:19;2.00;;;1.80;;
71265;SDS011;59030;52.052;8.550;2022-10-16T03:51:46;2.03;;;1.73;;
71265;SDS011;59030;52.052;8.550;2022-10-16T03:54:14;2.47;;;1.77;;
71265;SDS011;59030;52.052;8.550;2022-10-16T03:56:41;1.60;;;1.50;;
71265;SDS011;59030;52.052;8.550;2022-10-16T03:59:08;1.63;;;1.53;;
71265;SDS011;59030;52.052;8.550;2022-10-16T04:01:36;1.43;;;1.33;;
71265;SDS011;59030;52.052;8.550;2022-10-16T04:04:03;1.80;;;1.60;;
71265;SDS011;59030;52.052;8.550;2022-10-16T04:06:30;2.03;;;1.70;;
71265;SDS011;59030;52.052;8.550;2022-10-16T04:08:57;1.80;;;1.63;;
71265;SDS011;59030;52.052;8.550;2022-10-16T04:11:24;1.50;;;1.40;;
71265;SDS011;59030;52.052;8.550;2022-10-16T04:13:52;1.57;;;1.47;;
71265;SDS011;59030;52.052;8.550;2022-10-16T04:16:19;1.60;;;1.50;;
71265;SDS011;59030;52.052;8.550;2022-10-16T04:18:46;1.80;;;1.70;;
71265;SDS011;59030;52.052;8.550;2022-10-16T04:21:14;2.10;;;1.90;;
71265;SDS011;59030;52.052;8.550;2022-10-16T04:23:41;1.73;;;1.63;;
71265;SDS011;59030;52.052;8.550;2022-10-16T04:26:08;1.80;;;1.70;;
71265;SDS011;59030;52.052;8.550;2022-10-16T04:28:36;1.63;;;1.53;;
71265;SDS011;59030;52.052;8.550;2022-10-16T04:31:04;1.53;;;1.43;;
71265;SDS011;59030;52.052;8.550;2022-10-16T04:33:32;1.43;;;1.33;;
71265;SDS011;59030;52.052;8.550;2022-10-16T04:36:00;1.50;;;1.40;;
71265;SDS011;59030;52.052;8.550;2022-10-16T04:38:27;1.57;;;1.47;;
71265;SDS011;59030;52.052;8.550;2022-10-16T04:40:55;1.60;;;1.50;;
71265;SDS011;59030;52.052;8.550;2022-10-16T04:43:23;1.60;;;1.50;;
71265;SDS011;59030;52.052;8.550;2022-10-16T04:45:51;1.30;;;1.20;;
71265;SDS011;59030;52.052;8.550;2022-10-16T04:48:20;1.60;;;1.50;;
71265;SDS011;59030;52.052;8.550;2022-10-16T04:50:50;1.37;;;1.27;;
71265;SDS011;59030;52.052;8.550;2022-10-16T04:53:17;1.63;;;1.50;;
71265;SDS011;59030;52.052;8.550;2022-10-16T04:55:45;1.50;;;1.40;;
71265;SDS011;59030;52.052;8.550;2022-10-16T04:58:12;1.50;;;1.40;;
71265;SDS011;59030;52.052;8.550;2022-10-16T05:00:41;1.60;;;1.50;;
71265;SDS011;59030;52.052;8.550;2022-10-16T05:03:09;1.60;;;1.50;;
71265;SDS011;59030;52.052;8.550;2022-10-16T05:05:36;1.50;;;1.40;;
71265;SDS011;59030;52.052;8.550;2022-10-16T05:08:03;1.57;;;1.30;;
71265;SDS011;59030;52.052;8.550;2022-10-16T05:10:31;1.30;;;1.20;;
71265;SDS011;59030;52.052;8.550;2022-10-16T05:12:58;1.00;;;1.00;;
71265;SDS011;59030;52.052;8.550;2022-10-16T05:15:25;1.50;;;1.40;;
71265;SDS011;59030;52.052;8.550;2022-10-16T05:17:53;1.10;;;1.10;;
71265;SDS011;59030;52.052;8.550;2022-10-16T05:20:20;1.40;;;1.30;;
71265;SDS011;59030;52.052;8.550;2022-10-16T05:22:48;1.53;;;1.43;;
71265;SDS011;59030;52.052;8.550;2022-10-16T05:25:15;1.30;;;1.20;;
71265;SDS011;59030;52.052;8.550;2022-10-16T05:27:42;1.13;;;1.10;;
71265;SDS011;59030;52.052;8.550;2022-10-16T05:30:11;1.53;;;1.43;;
71265;SDS011;59030;52.052;8.550;2022-10-16T05:32:38;1.13;;;1.07;;
71265;SDS011;59030;52.052;8.550;2022-10-16T05:35:07;1.63;;;1.53;;
71265;SDS011;59030;52.052;8.550;2022-10-16T05:37:34;1.40;;;1.30;;
71265;SDS011;59030;52.052;8.550;2022-10-16T05:40:02;0.97;;;0.97;;
71265;SDS011;59030;52.052;8.550;2022-10-16T05:42:30;1.37;;;1.27;;
71265;SDS011;59030;52.052;8.550;2022-10-16T05:44:58;1.13;;;1.13;;
71265;SDS011;59030;52.052;8.550;2022-10-16T05:47:25;1.30;;;1.20;;
71265;SDS011;59030;52.052;8.550;2022-10-16T05:49:53;1.23;;;1.17;;
71265;SDS011;59030;52.052;8.550;2022-10-16T05:52:20;1.00;;;1.00;;
71265;SDS011;59030;52.052;8.550;2022-10-16T05:54:47;1.27;;;1.17;;
71265;SDS011;59030;52.052;8.550;2022-10-16T05:57:14;1.37;;;1.27;;
71265;SDS011;59030;52.052;8.550;2022-10-16T05:59:42;1.10;;;1.10;;
71265;SDS011;59030;52.052;8.550;2022-10-16T06:02:09;1.43;;;1.33;;
71265;SDS011;59030;52.052;8.550;2022-10-16T06:04:38;1.33;;;1.23;;
71265;SDS011;59030;52.052;8.550;2022-10-16T06:07:06;0.90;;;0.90;;
71265;SDS011;59030;52.052;8.550;2022-10-16T06:09:33;1.30;;;1.20;;
71265;SDS011;59030;52.052;8.550;2022-10-16T06:12:00;1.57;;;1.30;;
71265;SDS011;59030;52.052;8.550;2022-10-16T06:14:28;2.00;;;0.93;;
71265;SDS011;59030;52.052;8.550;2022-10-16T06:16:55;1.33;;;1.20;;
71265;SDS011;59030;52.052;8.550;2022-10-16T06:19:23;1.20;;;1.10;;
71265;SDS011;59030;52.052;8.550;2022-10-16T06:21:50;1.00;;;1.00;;
71265;SDS011;59030;52.052;8.550;2022-10-16T06:24:17;1.43;;;1.20;;
71265;SDS011;59030;52.052;8.550;2022-10-16T06:26:45;1.00;;;1.00;;
71265;SDS011;59030;52.052;8.550;2022-10-16T06:29:12;1.00;;;1.00;;
71265;SDS011;59030;52.052;8.550;2022-10-16T06:31:39;1.30;;;1.20;;
71265;SDS011;59030;52.052;8.550;2022-10-16T06:34:08;1.00;;;1.00;;
71265;SDS011;59030;52.052;8.550;2022-10-16T06:36:37;1.10;;;1.10;;
71265;SDS011;59030;52.052;8.550;2022-10-16T06:39:05;1.10;;;1.00;;
71265;SDS011;59030;52.052;8.550;2022-10-16T06:41:33;1.03;;;1.03;;
71265;SDS011;59030;52.052;8.550;2022-10-16T06:44:05;0.80;;;0.80;;
71265;SDS011;59030;52.052;8.550;2022-10-16T06:46:32;1.00;;;0.90;;
71265;SDS011;59030;52.052;8.550;2022-10-16T06:49:00;0.90;;;0.90;;
71265;SDS011;59030;52.052;8.550;2022-10-16T06:51:27;0.90;;;0.90;;
71265;SDS011;59030;52.052;8.550;2022-10-16T06:53:55;1.00;;;1.00;;
71265;SDS011;59030;52.052;8.550;2022-10-16T06:56:24;1.30;;;1.20;;
71265;SDS011;59030;52.052;8.550;2022-10-16T06:58:52;1.23;;;1.17;;
71265;SDS011;59030;52.052;8.550;2022-10-16T07:01:21;0.90;;;0.90;;
71265;SDS011;59030;52.052;8.550;2022-10-16T07:03:49;1.13;;;1.13;;
71265;SDS011;59030;52.052;8.550;2022-10-16T07:06:17;1.00;;;1.00;;
71265;SDS011;59030;52.052;8.550;2022-10-16T07:08:45;0.90;;;0.90;;
71265;SDS011;59030;52.052;8.550;2022-10-16T07:11:13;1.30;;;1.20;;
71265;SDS011;59030;52.052;8.550;2022-10-16T07:13:41;1.20;;;1.10;;
71265;SDS011;59030;52.052;8.550;2022-10-16T07:16:10;1.10;;;1.10;;
71265;SDS011;59030;52.052;8.550;2022-10-16T07:18:38;1.10;;;1.10;;
71265;SDS011;59030;52.052;8.550;2022-10-16T07:21:06;1.00;;;1.00;;
71265;SDS011;59030;52.052;8.550;2022-10-16T07:23:34;1.30;;;1.20;;
71265;SDS011;59030;52.052;8.550;2022-10-16T07:26:02;0.90;;;0.90;;
71265;SDS011;59030;52.052;8.550;2022-10-16T07:28:29;1.23;;;1.13;;
71265;SDS011;59030;52.052;8.550;2022-10-16T07:31:00;1.13;;;1.13;;
71265;SDS011;59030;52.052;8.550;2022-10-16T07:33:27;1.87;;;1.00;;
71265;SDS011;59030;52.052;8.550;2022-10-16T07:35:55;0.80;;;0.80;;
71265;SDS011;59030;52.052;8.550;2022-10-16T07:38:22;1.30;;;1.20;;
71265;SDS011;59030;52.052;8.550;2022-10-16T07:40:56;1.00;;;1.00;;
71265;SDS011;59030;52.052;8.550;2022-10-16T07:43:24;0.93;;;0.93;;
71265;SDS011;59030;52.052;8.550;2022-10-16T07:45:51;1.27;;;1.00;;
71265;SDS011;59030;52.052;8.550;2022-10-16T07:48:19;0.90;;;0.90;;
71265;SDS011;59030;52.052;8.550;2022-10-16T07:50:47;1.00;;;1.00;;
71265;SDS011;59030;52.052;8.550;2022-10-16T07:53:14;1.33;;;1.23;;
71265;SDS011;59030;52.052;8.550;2022-10-16T07:55:41;1.00;;;1.00;;
71265;SDS011;59030;52.052;8.550;2022-10-16T07:58:09;1.10;;;1.07;;
71265;SDS011;59030;52.052;8.550;2022-10-16T08:00:37;0.90;;;0.90;;
71265;SDS011;59030;52.052;8.550;2022-10-16T08:03:04;0.87;;;0.87;;
71265;SDS011;59030;52.052;8.550;2022-10-16T08:05:32;1.33;;;1.23;;
71265;SDS011;59030;52.052;8.550;2022-10-16T08:08:01;1.20;;;1.10;;
71265;SDS011;59030;52.052;8.550;2022-10-16T08:10:28;1.13;;;1.03;;
71265;SDS011;59030;52.052;8.550;2022-10-16T08:12:57;1.00;;;1.00;;
71265;SDS011;59030;52.052;8.550;2022-10-16T08:15:25;1.17;;;1.10;;
71265;SDS011;59030;52.052;8.550;2022-10-16T08:17:56;0.93;;;0.93;;
71265;SDS011;59030;52.052;8.550;2022-10-16T08:20:24;1.00;;;1.00;;
71265;SDS011;59030;52.052;8.550;2022-10-16T08:22:52;0.87;;;0.87;;
71265;SDS011;59030;52.052;8.550;2022-10-16T08:25:20;1.30;;;0.97;;
71265;SDS011;59030;52.052;8.550;2022-10-16T08:27:47;1.07;;;1.00;;
71265;SDS011;59030;52.052;8.550;2022-10-16T08:30:14;1.27;;;0.90;;
71265;SDS011;59030;52.052;8.550;2022-10-16T08:32:42;0.90;;;0.90;;
71265;SDS011;59030;52.052;8.550;2022-10-16T08:35:10;1.07;;;0.97;;
71265;SDS011;59030;52.052;8.550;2022-10-16T08:37:38;0.97;;;0.93;;
71265;SDS011;59030;52.052;8.550;2022-10-16T08:40:07;0.90;;;0.90;;
71265;SDS011;59030;52.052;8.550;2022-10-16T08:42:39;0.80;;;0.80;;
71265;SDS011;59030;52.052;8.550;2022-10-16T08:45:15;0.67;;;0.67;;
71265;SDS011;59030;52.052;8.550;2022-10-16T08:47:44;0.60;;;0.60;;
71265;SDS011;59030;52.052;8.550;2022-10-16T08:50:13;0.80;;;0.80;;
71265;SDS011;59030;52.052;8.550;2022-10-16T08:52:42;0.90;;;0.80;;
71265;SDS011;59030;52.052;8.550;2022-10-16T08:55:11;0.80;;;0.80;;
71265;SDS011;59030;52.052;8.550;2022-10-16T08:57:39;0.60;;;0.60;;
71265;SDS011;59030;52.052;8.550;2022-10-16T09:00:12;0.80;;;0.80;;
71265;SDS011;59030;52.052;8.550;2022-10-16T09:02:40;0.40;;;0.40;;
71265;SDS011;59030;52.052;8.550;2022-10-16T09:05:17;0.80;;;0.80;;
71265;SDS011;59030;52.052;8.550;2022-10-16T09:07:46;0.80;;;0.80;;
71265;SDS011;59030;52.052;8.550;2022-10-16T09:10:18;0.87;;;0.87;;
71265;SDS011;59030;52.052;8.550;2022-10-16T09:12:48;0.60;;;0.60;;
71265;SDS011;59030;52.052;8.550;2022-10-16T09:15:19;0.70;;;0.70;;
71265;SDS011;59030;52.052;8.550;2022-10-16T09:17:49;0.77;;;0.70;;
71265;SDS011;59030;52.052;8.550;2022-10-16T09:20:28;0.70;;;0.70;;
71265;SDS011;59030;52.052;8.550;2022-10-16T09:23:07;0.60;;;0.60;;
71265;SDS011;59030;52.052;8.550;2022-10-16T09:25:30;1.20;;;0.80;;
71265;SDS011;59030;52.052;8.550;2022-10-16T09:27:58;1.73;;;0.73;;
71265;SDS011;59030;52.052;8.550;2022-10-16T09:30:26;0.57;;;0.57;;
71265;SDS011;59030;52.052;8.550;2022-10-16T09:32:55;0.70;;;0.70;;
71265;SDS011;59030;52.052;8.550;2022-10-16T09:35:27;0.70;;;0.70;;
71265;SDS011;59030;52.052;8.550;2022-10-16T09:37:54;0.70;;;0.70;;
71265;SDS011;59030;52.052;8.550;2022-10-16T09:40:25;0.70;;;0.70;;
71265;SDS011;59030;52.052;8.550;2022-10-16T09:42:54;0.70;;;0.70;;
71265;SDS011;59030;52.052;8.550;2022-10-16T09:45:23;1.43;;;0.80;;
71265;SDS011;59030;52.052;8.550;2022-10-16T09:47:50;0.90;;;0.80;;
71265;SDS011;59030;52.052;8.550;2022-10-16T09:50:21;0.67;;;0.67;;
71265;SDS011;59030;52.052;8.550;2022-10-16T09:52:49;0.70;;;0.70;;
71265;SDS011;59030;52.052;8.550;2022-10-16T09:55:17;1.53;;;0.63;;
71265;SDS011;59030;52.052;8.550;2022-10-16T09:57:51;0.50;;;0.50;;
71265;SDS011;59030;52.052;8.550;2022-10-16T10:00:19;0.60;;;0.60;;
71265;SDS011;59030;52.052;8.550;2022-10-16T10:02:47;0.60;;;0.60;;
71265;SDS011;59030;52.052;8.550;2022-10-16T10:05:18;0.53;;;0.53;;
71265;SDS011;59030;52.052;8.550;2022-10-16T10:07:52;0.67;;;0.67;;
71265;SDS011;59030;52.052;8.550;2022-10-16T10:10:21;0.50;;;0.50;;
71265;SDS011;59030;52.052;8.550;2022-10-16T10:12:48;0.53;;;0.53;;
71265;SDS011;59030;52.052;8.550;2022-10-16T10:15:16;1.00;;;0.60;;
71265;SDS011;59030;52.052;8.550;2022-10-16T10:17:46;0.70;;;0.70;;
71265;SDS011;59030;52.052;8.550;2022-10-16T10:20:24;0.50;;;0.50;;
71265;SDS011;59030;52.052;8.550;2022-10-16T10:22:51;0.53;;;0.53;;
71265;SDS011;59030;52.052;8.550;2022-10-16T10:25:31;0.53;;;0.53;;
71265;SDS011;59030;52.052;8.550;2022-10-16T10:28:14;0.50;;;0.50;;
71265;SDS011;59030;52.052;8.550;2022-10-16T10:30:41;0.67;;;0.47;;
71265;SDS011;59030;52.052;8.550;2022-10-16T10:33:20;0.50;;;0.50;;
71265;SDS011;59030;52.052;8.550;2022-10-16T10:35:52;0.50;;;0.43;;
71265;SDS011;59030;52.052;8.550;2022-10-16T10:38:23;0.40;;;0.40;;
71265;SDS011;59030;52.052;8.550;2022-10-16T10:40:51;0.30;;;0.30;;
71265;SDS011;59030;52.052;8.550;2022-10-16T10:43:24;0.50;;;0.50;;
71265;SDS011;59030;52.052;8.550;2022-10-16T10:45:52;0.40;;;0.40;;
71265;SDS011;59030;52.052;8.550;2022-10-16T10:48:26;0.40;;;0.40;;
71265;SDS011;59030;52.052;8.550;2022-10-16T10:50:54;0.70;;;0.67;;
71265;SDS011;59030;52.052;8.550;2022-10-16T10:53:27;0.70;;;0.60;;
71265;SDS011;59030;52.052;8.550;2022-10-16T10:55:56;0.53;;;0.50;;
71265;SDS011;59030;52.052;8.550;2022-10-16T10:58:26;0.67;;;0.67;;
71265;SDS011;59030;52.052;8.550;2022-10-16T11:00:55;0.43;;;0.43;;
71265;SDS011;59030;52.052;8.550;2022-10-16T11:03:27;0.70;;;0.70;;
71265;SDS011;59030;52.052;8.550;2022-10-16T11:05:56;1.00;;;0.63;;
71265;SDS011;59030;52.052;8.550;2022-10-16T11:08:26;0.50;;;0.50;;
71265;SDS011;59030;52.052;8.550;2022-10-16T11:10:55;0.83;;;0.70;;
71265;SDS011;59030;52.052;8.550;2022-10-16T11:13:31;0.60;;;0.60;;
71265;SDS011;59030;52.052;8.550;2022-10-16T11:16:00;0.53;;;0.53;;
71265;SDS011;59030;52.052;8.550;2022-10-16T11:18:30;0.50;;;0.50;;
71265;SDS011;59030;52.052;8.550;2022-10-16T11:21:00;0.50;;;0.50;;
71265;SDS011;59030;52.052;8.550;2022-10-16T11:23:29;0.60;;;0.60;;
71265;SDS011;59030;52.052;8.550;2022-10-16T11:25:57;0.50;;;0.50;;
71265;SDS011;59030;52.052;8.550;2022-10-16T11:28:25;0.80;;;0.80;;
71265;SDS011;59030;52.052;8.550;2022-10-16T11:30:56;0.97;;;0.90;;
71265;SDS011;59030;52.052;8.550;2022-10-16T11:33:25;0.63;;;0.63;;
71265;SDS011;59030;52.052;8.550;2022-10-16T11:35:57;0.57;;;0.57;;
71265;SDS011;59030;52.052;8.550;2022-10-16T11:38:26;0.70;;;0.70;;
71265;SDS011;59030;52.052;8.550;2022-10-16T11:40:54;0.70;;;0.70;;
71265;SDS011;59030;52.052;8.550;2022-10-16T11:43:26;0.77;;;0.77;;
71265;SDS011;59030;52.052;8.550;2022-10-16T11:45:54;2.70;;;0.83;;
71265;SDS011;59030;52.052;8.550;2022-10-16T11:48:24;0.87;;;0.73;;
71265;SDS011;59030;52.052;8.550;2022-10-16T11:50:53;0.70;;;0.70;;
71265;SDS011;59030;52.052;8.550;2022-10-16T11:53:23;0.60;;;0.60;;
71265;SDS011;59030;52.052;8.550;2022-10-16T11:55:51;0.50;;;0.50;;
71265;SDS011;59030;52.052;8.550;2022-10-16T11:58:22;0.60;;;0.60;;
71265;SDS011;59030;52.052;8.550;2022-10-16T12:00:53;0.67;;;0.67;;
71265;SDS011;59030;52.052;8.550;2022-10-16T12:03:21;0.63;;;0.63;;
71265;SDS011;59030;52.052;8.550;2022-10-16T12:06:13;0.70;;;0.70;;
71265;SDS011;59030;52.052;8.550;2022-10-16T12:08:40;0.80;;;0.80;;
71265;SDS011;59030;52.052;8.550;2022-10-16T12:11:20;0.70;;;0.70;;
71265;SDS011;59030;52.052;8.550;2022-10-16T12:13:39;0.80;;;0.80;;
71265;SDS011;59030;52.052;8.550;2022-10-16T12:16:19;0.60;;;0.60;;
71265;SDS011;59030;52.052;8.550;2022-10-16T12:18:37;0.70;;;0.70;;
71265;SDS011;59030;52.052;8.550;2022-10-16T12:21:05;0.80;;;0.80;;
71265;SDS011;59030;52.052;8.550;2022-10-16T12:23:36;0.83;;;0.83;;
71265;SDS011;59030;52.052;8.550;2022-10-16T12:26:02;0.70;;;0.70;;
71265;SDS011;59030;52.052;8.550;2022-10-16T12:28:30;0.70;;;0.70;;
71265;SDS011;59030;52.052;8.550;2022-10-16T12:31:02;0.70;;;0.70;;
71265;SDS011;59030;52.052;8.550;2022-10-16T12:33:30;0.90;;;0.90;;
71265;SDS011;59030;52.052;8.550;2022-10-16T12:35:59;0.90;;;0.90;;
71265;SDS011;59030;52.052;8.550;2022-10-16T12:38:28;1.00;;;1.00;;
71265;SDS011;59030;52.052;8.550;2022-10-16T12:40:57;0.83;;;0.83;;
71265;SDS011;59030;52.052;8.550;2022-10-16T12:43:27;1.10;;;1.00;;
71265;SDS011;59030;52.052;8.550;2022-10-16T12:46:02;0.80;;;0.80;;
71265;SDS011;59030;52.052;8.550;2022-10-16T12:48:30;1.00;;;1.00;;
71265;SDS011;59030;52.052;8.550;2022-10-16T12:51:08;0.97;;;0.97;;
71265;SDS011;59030;52.052;8.550;2022-10-16T12:53:27;1.23;;;1.23;;
71265;SDS011;59030;52.052;8.550;2022-10-16T12:55:57;1.20;;;1.10;;
71265;SDS011;59030;52.052;8.550;2022-10-16T12:58:30;1.10;;;1.10;;
71265;SDS011;59030;52.052;8.550;2022-10-16T13:00:57;1.00;;;1.00;;
71265;SDS011;59030;52.052;8.550;2022-10-16T13:03:39;1.47;;;1.37;;
71265;SDS011;59030;52.052;8.550;2022-10-16T13:06:11;1.27;;;1.23;;
71265;SDS011;59030;52.052;8.550;2022-10-16T13:09:00;1.20;;;1.20;;
71265;SDS011;59030;52.052;8.550;2022-10-16T13:11:41;1.10;;;1.10;;
71265;SDS011;59030;52.052;8.550;2022-10-16T13:14:01;1.37;;;1.27;;
71265;SDS011;59030;52.052;8.550;2022-10-16T13:16:30;1.20;;;1.20;;
71265;SDS011;59030;52.052;8.550;2022-10-16T13:19:00;1.13;;;1.13;;
71265;SDS011;59030;52.052;8.550;2022-10-16T13:21:31;1.20;;;1.20;;
71265;SDS011;59030;52.052;8.550;2022-10-16T13:24:04;1.30;;;1.20;;
71265;SDS011;59030;52.052;8.550;2022-10-16T13:26:33;1.20;;;1.20;;
71265;SDS011;59030;52.052;8.550;2022-10-16T13:29:01;1.30;;;1.20;;
71265;SDS011;59030;52.052;8.550;2022-10-16T13:31:30;1.17;;;1.17;;
71265;SDS011;59030;52.052;8.550;2022-10-16T13:33:59;1.20;;;1.20;;
71265;SDS011;59030;52.052;8.550;2022-10-16T13:36:27;1.50;;;1.40;;
71265;SDS011;59030;52.052;8.550;2022-10-16T13:38:59;1.50;;;1.40;;
71265;SDS011;59030;52.052;8.550;2022-10-16T13:41:27;1.47;;;1.37;;
71265;SDS011;59030;52.052;8.550;2022-10-16T13:43:55;1.30;;;1.20;;
71265;SDS011;59030;52.052;8.550;2022-10-16T13:46:24;1.27;;;1.17;;
71265;SDS011;59030;52.052;8.550;2022-10-16T13:48:58;1.50;;;1.40;;
71265;SDS011;59030;52.052;8.550;2022-10-16T13:51:25;2.10;;;1.50;;
71265;SDS011;59030;52.052;8.550;2022-10-16T13:53:54;1.60;;;1.50;;
71265;SDS011;59030;52.052;8.550;2022-10-16T13:56:22;1.47;;;1.37;;
71265;SDS011;59030;52.052;8.550;2022-10-16T13:58:58;1.20;;;1.20;;
71265;SDS011;59030;52.052;8.550;2022-10-16T14:01:27;2.10;;;1.33;;
71265;SDS011;59030;52.052;8.550;2022-10-16T14:03:59;1.40;;;1.37;;
71265;SDS011;59030;52.052;8.550;2022-10-16T14:06:27;1.30;;;1.30;;
71265;SDS011;59030;52.052;8.550;2022-10-16T14:08:55;1.43;;;1.33;;
71265;SDS011;59030;52.052;8.550;2022-10-16T14:11:23;1.23;;;1.20;;
71265;SDS011;59030;52.052;8.550;2022-10-16T14:13:52;1.13;;;1.13;;
71265;SDS011;59030;52.052;8.550;2022-10-16T14:16:20;1.83;;;1.10;;
71265;SDS011;59030;52.052;8.550;2022-10-16T14:18:50;1.20;;;1.20;;
71265;SDS011;59030;52.052;8.550;2022-10-16T14:21:18;1.20;;;1.20;;
71265;SDS011;59030;52.052;8.550;2022-10-16T14:23:45;1.20;;;1.20;;
71265;SDS011;59030;52.052;8.550;2022-10-16T14:26:14;1.10;;;1.10;;
71265;SDS011;59030;52.052;8.550;2022-10-16T14:28:43;1.20;;;1.20;;
71265;SDS011;59030;52.052;8.550;2022-10-16T14:34:24;1.10;;;1.10;;
71265;SDS011;59030;52.052;8.550;2022-10-16T14:36:56;1.17;;;1.17;;
71265;SDS011;59030;52.052;8.550;2022-10-16T14:39:23;1.13;;;1.10;;
71265;SDS011;59030;52.052;8.550;2022-10-16T14:41:54;1.00;;;1.00;;
71265;SDS011;59030;52.052;8.550;2022-10-16T14:44:22;1.10;;;1.10;;
71265;SDS011;59030;52.052;8.550;2022-10-16T14:46:50;1.10;;;1.10;;
71265;SDS011;59030;52.052;8.550;2022-10-16T14:49:18;1.00;;;1.00;;
71265;SDS011;59030;52.052;8.550;2022-10-16T14:51:46;1.53;;;1.00;;
71265;SDS011;59030;52.052;8.550;2022-10-16T14:54:16;1.30;;;1.30;;
71265;SDS011;59030;52.052;8.550;2022-10-16T14:56:45;1.30;;;1.20;;
71265;SDS011;59030;52.052;8.550;2022-10-16T14:59:14;1.07;;;1.07;;
71265;SDS011;59030;52.052;8.550;2022-10-16T15:01:43;1.07;;;1.07;;